Terminal Aerodrome Forecast
Issued by NWS Albany, NY

Home | Current Version | Previous Version | Text Only | Print | Product List | Glossary On
Versions: 1 2 3 4 5 6 7 8 9 10 11 12 13 14 15 16 17 18 19 20 21 22 23 24 25 26
000
FTUS41 KALY 252300
TAFGFL
TAF
KGFL 252331Z 2600/2624 21005KT P6SM SCT150 OVC250
     FM260600 31005KT P6SM SCT050 BKN150 OVC250
     FM261400 36003KT P6SM VCSH BKN040 OVC120
     FM261600 36004KT 2SM -SN BR OVC020=

USA.gov is the U.S. government's official web portal to all federal, state and local government web resources and services.